createdAt,value
2023-09-17T00:00:06.588Z,26.38
2023-09-17T00:01:08.049Z,26.29
2023-09-17T00:02:09.509Z,26.38
2023-09-17T00:03:11.029Z,26.36
2023-09-17T00:04:12.658Z,26.34
2023-09-17T00:05:14.162Z,26.31
2023-09-17T00:06:15.558Z,26.29
2023-09-17T00:07:17.037Z,26.28
2023-09-17T00:08:18.412Z,26.34
2023-09-17T00:09:19.811Z,26.29
2023-09-17T00:10:21.445Z,26.25
2023-09-17T00:11:22.828Z,26.19
2023-09-17T00:12:24.226Z,26.25
2023-09-17T00:13:25.661Z,26.22
2023-09-17T00:14:27.076Z,26.18
2023-09-17T00:15:29.078Z,26.19
2023-09-17T00:16:30.554Z,26.19
2023-09-17T00:17:31.995Z,26.16
2023-09-17T00:18:33.388Z,26.13
2023-09-17T00:19:34.828Z,26.18
2023-09-17T00:20:36.245Z,26.22
2023-09-17T00:21:37.654Z,26.18
2023-09-17T00:22:39.149Z,26.16
2023-09-17T00:23:40.644Z,26.19
2023-09-17T00:24:42.083Z,26.18
2023-09-17T00:25:43.487Z,26.07
2023-09-17T00:26:44.959Z,26.16
2023-09-17T00:27:46.336Z,26.10
2023-09-17T00:28:47.772Z,26.06
2023-09-17T00:29:49.187Z,26.15
2023-09-17T00:30:50.615Z,26.19
2023-09-17T00:31:52.032Z,26.07
2023-09-17T00:32:53.597Z,26.07
2023-09-17T00:33:54.993Z,26.15
2023-09-17T00:34:56.390Z,26.10
2023-09-17T00:35:57.814Z,26.13
2023-09-17T00:36:59.195Z,26.13
2023-09-17T00:38:00.641Z,26.05
2023-09-17T00:39:02.150Z,26.05
2023-09-17T00:40:03.596Z,25.99
2023-09-17T00:41:04.989Z,26.07
2023-09-17T00:42:06.468Z,26.02
2023-09-17T00:43:07.945Z,26.07
2023-09-17T00:44:09.336Z,25.96
2023-09-17T00:45:10.725Z,26.02
2023-09-17T00:46:12.164Z,26.00
2023-09-17T00:47:13.701Z,26.05
2023-09-17T00:48:15.144Z,26.00
2023-09-17T00:49:16.626Z,26.02
2023-09-17T00:50:18.060Z,25.98
2023-09-17T00:51:19.463Z,25.99
2023-09-17T00:52:20.954Z,25.99
2023-09-17T00:53:22.395Z,25.91
2023-09-17T00:54:23.787Z,25.90
2023-09-17T00:55:25.223Z,25.91
2023-09-17T00:56:26.637Z,25.90
2023-09-17T00:57:28.033Z,25.98
2023-09-17T00:58:29.498Z,25.87
2023-09-17T00:59:30.934Z,25.84
2023-09-17T01:00:32.365Z,25.84
2023-09-17T01:01:33.861Z,25.84
2023-09-17T01:02:35.371Z,25.90
2023-09-17T01:03:36.940Z,25.87
2023-09-17T01:04:38.481Z,25.85
2023-09-17T01:05:39.884Z,25.87
2023-09-17T01:06:41.306Z,25.84
2023-09-17T01:07:42.713Z,25.87
2023-09-17T01:08:44.135Z,25.88
2023-09-17T01:09:45.543Z,25.88
2023-09-17T01:10:46.940Z,25.85
2023-09-17T01:11:48.339Z,25.95
2023-09-17T01:12:49.794Z,25.83
2023-09-17T01:13:51.645Z,25.87
2023-09-17T01:14:53.256Z,25.83
2023-09-17T01:15:54.712Z,25.80
2023-09-17T01:16:56.167Z,25.81
2023-09-17T01:17:57.574Z,25.85
2023-09-17T01:18:59.003Z,25.87
2023-09-17T01:20:00.447Z,25.83
2023-09-17T01:21:01.870Z,25.84
2023-09-17T01:22:03.285Z,25.84
2023-09-17T01:23:04.750Z,25.90
2023-09-17T01:24:06.166Z,25.81
2023-09-17T01:25:07.563Z,25.81
2023-09-17T01:26:09.011Z,25.81
2023-09-17T01:27:10.412Z,25.80
2023-09-17T01:28:11.821Z,25.85
2023-09-17T01:29:13.204Z,25.81
2023-09-17T01:30:14.608Z,25.87
2023-09-17T01:31:16.141Z,25.83
2023-09-17T01:32:17.528Z,25.81
2023-09-17T01:33:18.961Z,25.87
2023-09-17T01:34:20.396Z,25.80
2023-09-17T01:35:21.790Z,25.85
2023-09-17T01:36:23.193Z,25.85
2023-09-17T01:37:24.716Z,25.87
2023-09-17T01:38:26.180Z,25.78
2023-09-17T01:39:27.589Z,25.84
2023-09-17T01:40:29.087Z,25.83
2023-09-17T01:41:30.486Z,25.84
2023-09-17T01:42:31.987Z,25.83
2023-09-17T01:43:33.516Z,25.83
2023-09-17T01:44:35.048Z,25.84
2023-09-17T01:45:36.561Z,25.83
2023-09-17T01:46:38.005Z,25.81
2023-09-17T01:47:39.432Z,25.80
2023-09-17T01:48:40.826Z,25.81
2023-09-17T01:49:42.253Z,25.85
2023-09-17T01:50:43.678Z,25.80
2023-09-17T01:51:45.166Z,25.77
2023-09-17T01:52:46.624Z,25.78
2023-09-17T01:53:48.240Z,25.72
2023-09-17T01:54:49.838Z,25.75
2023-09-17T01:55:51.268Z,25.81
2023-09-17T01:56:52.702Z,25.77
2023-09-17T01:57:54.096Z,25.77
2023-09-17T01:58:55.578Z,25.75
2023-09-17T01:59:56.951Z,25.75
2023-09-17T02:00:58.419Z,25.75
2023-09-17T02:01:59.922Z,25.72
2023-09-17T02:03:01.405Z,25.77
2023-09-17T02:04:02.891Z,25.80
2023-09-17T02:05:04.287Z,25.70
2023-09-17T02:06:05.682Z,25.75
2023-09-17T02:07:07.083Z,25.70
2023-09-17T02:08:08.481Z,25.77
2023-09-17T02:09:09.884Z,25.69
2023-09-17T02:10:11.270Z,25.63
2023-09-17T02:11:12.674Z,25.70
2023-09-17T02:12:14.134Z,25.70
2023-09-17T02:13:15.566Z,25.70
2023-09-17T02:14:16.980Z,25.69
2023-09-17T02:15:18.377Z,25.69
2023-09-17T02:16:19.789Z,25.68
2023-09-17T02:17:21.226Z,25.72
2023-09-17T02:18:22.624Z,25.66
2023-09-17T02:19:24.046Z,25.72
2023-09-17T02:20:25.471Z,25.68
2023-09-17T02:21:26.846Z,25.73
2023-09-17T02:22:28.249Z,25.69
2023-09-17T02:23:29.642Z,25.68
2023-09-17T02:24:31.036Z,25.69
2023-09-17T02:25:32.453Z,25.70
2023-09-17T02:26:33.882Z,25.66
2023-09-17T02:27:35.343Z,25.68
2023-09-17T02:28:36.800Z,25.65
2023-09-17T02:29:38.189Z,25.65
2023-09-17T02:30:39.588Z,25.70
2023-09-17T02:31:41.121Z,25.69
2023-09-17T02:32:42.470Z,25.70
2023-09-17T02:33:43.893Z,25.65
2023-09-17T02:34:45.366Z,25.66
2023-09-17T02:35:46.805Z,25.69
2023-09-17T02:36:48.208Z,25.65
2023-09-17T02:37:49.690Z,25.66
2023-09-17T02:38:51.128Z,25.66
2023-09-17T02:39:52.548Z,25.63
2023-09-17T02:40:54.008Z,25.65
2023-09-17T02:41:55.388Z,25.65
2023-09-17T02:42:56.784Z,25.65
2023-09-17T02:43:58.272Z,25.66
2023-09-17T02:44:59.716Z,25.66
2023-09-17T02:46:01.205Z,25.70
2023-09-17T02:47:02.686Z,25.62
2023-09-17T02:48:04.161Z,25.69
2023-09-17T02:49:05.549Z,25.63
2023-09-17T02:50:07.014Z,25.63
2023-09-17T02:51:08.401Z,25.69
2023-09-17T02:52:09.794Z,25.55
2023-09-17T02:53:11.191Z,25.65
2023-09-17T02:54:12.671Z,25.59
2023-09-17T02:55:14.189Z,25.65
2023-09-17T02:56:15.742Z,25.65
2023-09-17T02:57:17.142Z,25.66
2023-09-17T02:58:18.538Z,25.60
2023-09-17T02:59:19.926Z,25.66
2023-09-17T03:00:21.321Z,25.60
2023-09-17T03:01:22.772Z,25.62
2023-09-17T03:02:24.286Z,25.69
2023-09-17T03:03:25.747Z,25.63
2023-09-17T03:04:27.128Z,25.59
2023-09-17T03:05:28.676Z,25.63
2023-09-17T03:06:30.073Z,25.59
2023-09-17T03:07:31.481Z,25.59
2023-09-17T03:08:32.911Z,25.60
2023-09-17T03:09:34.298Z,25.59
2023-09-17T03:10:35.728Z,25.58
2023-09-17T03:11:37.150Z,25.62
2023-09-17T03:12:38.541Z,25.55
2023-09-17T03:13:40.004Z,25.59
2023-09-17T03:14:41.403Z,25.60
2023-09-17T03:15:42.800Z,25.60
2023-09-17T03:16:44.275Z,25.59
2023-09-17T03:17:45.795Z,25.54
2023-09-17T03:18:47.166Z,25.60
2023-09-17T03:19:48.637Z,25.54
2023-09-17T03:20:50.014Z,25.55
2023-09-17T03:21:51.419Z,25.58
2023-09-17T03:22:52.828Z,25.55
2023-09-17T03:23:54.293Z,25.53
2023-09-17T03:25:03.805Z,25.55
2023-09-17T03:25:58.063Z,25.65
2023-09-17T03:26:59.463Z,25.62
2023-09-17T03:28:00.866Z,25.59
2023-09-17T03:29:02.307Z,25.53
2023-09-17T03:30:03.744Z,25.51
2023-09-17T03:31:05.172Z,25.54
2023-09-17T03:32:06.641Z,25.59
2023-09-17T03:33:08.128Z,25.50
2023-09-17T03:34:09.551Z,25.58
2023-09-17T03:35:10.983Z,25.60
2023-09-17T03:36:12.383Z,25.51
2023-09-17T03:37:13.839Z,25.58
2023-09-17T03:38:15.236Z,25.50
2023-09-17T03:39:16.634Z,25.58
2023-09-17T03:40:18.130Z,25.50
2023-09-17T03:41:19.645Z,25.48
2023-09-17T03:42:21.037Z,25.51
2023-09-17T03:43:22.457Z,25.48
2023-09-17T03:44:23.838Z,25.47
2023-09-17T03:45:25.306Z,25.54
2023-09-17T03:46:26.860Z,25.48
2023-09-17T03:47:28.313Z,25.50
2023-09-17T03:48:29.708Z,25.46
2023-09-17T03:49:31.199Z,25.54
2023-09-17T03:50:32.618Z,25.50
2023-09-17T03:51:34.232Z,25.46
2023-09-17T03:52:35.752Z,25.53
2023-09-17T03:53:37.133Z,25.48
2023-09-17T03:54:38.605Z,25.53
2023-09-17T03:55:40.022Z,25.53
2023-09-17T03:56:41.433Z,25.55
2023-09-17T03:57:42.994Z,25.53
2023-09-17T03:58:46.117Z,25.51
2023-09-17T03:59:46.879Z,25.46
2023-09-17T04:00:48.273Z,25.53
2023-09-17T04:01:49.757Z,25.43
2023-09-17T04:02:51.263Z,25.53
2023-09-17T04:03:52.925Z,25.44
2023-09-17T04:04:54.232Z,25.53
2023-09-17T04:05:55.680Z,25.50
2023-09-17T04:06:57.074Z,25.44
2023-09-17T04:07:58.561Z,25.48
2023-09-17T04:08:59.956Z,25.47
2023-09-17T04:10:01.355Z,25.46
2023-09-17T04:11:02.749Z,25.50
2023-09-17T04:12:04.141Z,25.46
2023-09-17T04:13:05.539Z,25.43
2023-09-17T04:14:06.937Z,25.55
2023-09-17T04:15:08.337Z,25.51
2023-09-17T04:16:09.812Z,25.44
2023-09-17T04:17:11.317Z,25.48
2023-09-17T04:18:12.794Z,25.43
2023-09-17T04:19:14.196Z,25.47
2023-09-17T04:20:15.697Z,25.44
2023-09-17T04:21:17.101Z,25.46
2023-09-17T04:22:18.510Z,25.46
2023-09-17T04:23:19.894Z,25.44
2023-09-17T04:24:21.294Z,25.38
2023-09-17T04:25:22.731Z,25.43
2023-09-17T04:26:24.130Z,25.47
2023-09-17T04:27:25.538Z,25.43
2023-09-17T04:28:26.967Z,25.40
2023-09-17T04:29:28.355Z,25.41
2023-09-17T04:30:29.750Z,25.44
2023-09-17T04:31:31.191Z,25.46
2023-09-17T04:32:32.675Z,25.40
2023-09-17T04:33:34.148Z,25.33
2023-09-17T04:34:35.629Z,25.44
2023-09-17T04:35:37.061Z,25.38
2023-09-17T04:36:38.454Z,25.41
2023-09-17T04:37:39.875Z,25.48
2023-09-17T04:38:41.281Z,25.38
2023-09-17T04:39:42.738Z,25.46
2023-09-17T04:40:44.156Z,25.40
2023-09-17T04:41:45.546Z,25.46
2023-09-17T04:42:46.945Z,25.33
2023-09-17T04:43:48.465Z,25.33
2023-09-17T04:44:49.806Z,25.46
2023-09-17T04:45:51.218Z,25.43
2023-09-17T04:46:52.695Z,25.40
2023-09-17T04:47:54.103Z,25.33
2023-09-17T04:48:55.500Z,25.43
2023-09-17T04:49:56.998Z,25.40
2023-09-17T04:50:58.366Z,25.33
2023-09-17T04:51:59.809Z,25.33
2023-09-17T04:53:01.204Z,25.29
2023-09-17T04:54:02.603Z,25.38
2023-09-17T04:55:04.014Z,25.36
2023-09-17T04:56:05.459Z,25.40
2023-09-17T04:57:06.903Z,25.41
2023-09-17T04:58:08.359Z,25.40
2023-09-17T04:59:09.748Z,25.38
2023-09-17T05:00:11.164Z,25.40
2023-09-17T05:01:12.683Z,25.40
2023-09-17T05:02:14.157Z,25.40
2023-09-17T05:03:15.691Z,25.40
2023-09-17T05:04:17.155Z,25.38
2023-09-17T05:05:18.559Z,25.36
2023-09-17T05:06:20.006Z,25.36
2023-09-17T05:07:21.438Z,25.33
2023-09-17T05:08:22.829Z,25.40
2023-09-17T05:09:24.308Z,25.36
2023-09-17T05:10:25.716Z,25.40
2023-09-17T05:11:27.151Z,25.36
2023-09-17T05:12:28.697Z,25.40
2023-09-17T05:13:30.124Z,25.35
2023-09-17T05:14:31.551Z,25.33
2023-09-17T05:15:32.954Z,25.36
2023-09-17T05:16:34.413Z,25.38
2023-09-17T05:17:35.836Z,25.33
2023-09-17T05:18:37.211Z,25.35
2023-09-17T05:19:38.632Z,25.35
2023-09-17T05:20:40.028Z,25.36
2023-09-17T05:21:41.472Z,25.35
2023-09-17T05:22:42.951Z,25.41
2023-09-17T05:23:44.354Z,25.40
2023-09-17T05:24:45.808Z,25.33
2023-09-17T05:25:47.347Z,25.43
2023-09-17T05:26:48.775Z,25.40
2023-09-17T05:27:50.837Z,25.43
2023-09-17T05:28:52.530Z,25.33
2023-09-17T05:29:53.965Z,25.32
2023-09-17T05:30:55.414Z,25.46
2023-09-17T05:31:57.000Z,25.40
2023-09-17T05:32:58.378Z,25.36
2023-09-17T05:33:59.849Z,25.38
2023-09-17T05:35:01.289Z,25.47
2023-09-17T05:36:02.703Z,25.38
2023-09-17T05:37:04.176Z,25.36
2023-09-17T05:38:05.568Z,25.36
2023-09-17T05:39:06.966Z,25.33
2023-09-17T05:40:08.369Z,25.38
2023-09-17T05:41:09.756Z,25.35
2023-09-17T05:42:11.148Z,25.33
2023-09-17T05:43:12.552Z,25.36
2023-09-17T05:44:14.013Z,25.35
2023-09-17T05:45:15.421Z,25.36
2023-09-17T05:46:16.807Z,25.38
2023-09-17T05:47:18.194Z,25.35
2023-09-17T05:48:19.591Z,25.38
2023-09-17T05:49:21.012Z,25.31
2023-09-17T05:50:22.421Z,25.35
2023-09-17T05:51:23.867Z,25.36
2023-09-17T05:52:25.339Z,25.35
2023-09-17T05:53:26.748Z,25.35
2023-09-17T05:54:28.160Z,25.31
2023-09-17T05:55:29.624Z,25.31
2023-09-17T05:56:31.031Z,25.36
2023-09-17T05:57:32.426Z,25.31
2023-09-17T05:58:33.871Z,25.33
2023-09-17T05:59:35.286Z,25.35
2023-09-17T06:00:36.681Z,25.35
2023-09-17T06:01:38.162Z,25.40
2023-09-17T06:02:39.631Z,25.38
2023-09-17T06:03:41.084Z,25.21
2023-09-17T06:04:42.582Z,25.31
2023-09-17T06:05:43.982Z,25.40
2023-09-17T06:06:45.394Z,25.35
2023-09-17T06:07:46.884Z,25.29
2023-09-17T06:08:48.288Z,25.32
2023-09-17T06:09:49.677Z,25.31
2023-09-17T06:10:51.098Z,25.36
2023-09-17T06:11:52.527Z,25.29
2023-09-17T06:12:53.981Z,25.35
2023-09-17T06:13:55.743Z,25.33
2023-09-17T06:14:56.893Z,25.40
2023-09-17T06:15:58.370Z,25.36
2023-09-17T06:16:59.828Z,25.31
2023-09-17T06:18:01.301Z,25.33
2023-09-17T06:19:02.672Z,25.25
2023-09-17T06:20:04.104Z,25.33
2023-09-17T06:21:05.481Z,25.25
2023-09-17T06:22:06.890Z,25.26
2023-09-17T06:23:08.339Z,25.33
2023-09-17T06:24:09.734Z,25.21
2023-09-17T06:25:11.136Z,25.25
2023-09-17T06:26:12.525Z,25.26
2023-09-17T06:27:13.922Z,25.23
2023-09-17T06:28:15.320Z,25.23
2023-09-17T06:29:16.720Z,25.23
2023-09-17T06:30:18.116Z,25.25
2023-09-17T06:31:19.522Z,25.23
2023-09-17T06:32:20.924Z,25.21
2023-09-17T06:33:22.318Z,25.23
2023-09-17T06:34:23.789Z,25.22
2023-09-17T06:35:25.272Z,25.23
2023-09-17T06:36:29.295Z,25.21
2023-09-17T06:37:29.075Z,25.29
2023-09-17T06:38:30.614Z,25.23
2023-09-17T06:39:32.027Z,25.29
2023-09-17T06:40:33.572Z,25.21
2023-09-17T06:41:38.085Z,25.21
2023-09-17T06:42:37.362Z,25.22
2023-09-17T06:43:38.878Z,25.26
2023-09-17T06:44:40.299Z,25.23
2023-09-17T06:45:41.695Z,25.29
2023-09-17T06:46:43.149Z,25.28
2023-09-17T06:47:44.732Z,25.21
2023-09-17T06:48:46.265Z,25.25
2023-09-17T06:49:47.682Z,25.22
2023-09-17T06:50:49.077Z,25.28
2023-09-17T06:51:50.476Z,25.25
2023-09-17T06:52:51.897Z,25.25
2023-09-17T06:53:53.669Z,25.28
2023-09-17T06:54:55.271Z,25.25
2023-09-17T06:55:56.708Z,25.22
2023-09-17T06:56:58.090Z,25.25
2023-09-17T06:57:59.547Z,25.28
2023-09-17T06:59:00.976Z,25.28
2023-09-17T07:00:02.367Z,25.28
2023-09-17T07:01:03.800Z,25.25
2023-09-17T07:02:05.226Z,25.28
2023-09-17T07:03:06.695Z,25.25
2023-09-17T07:04:09.157Z,25.28
2023-09-17T07:05:10.527Z,25.23
2023-09-17T07:06:12.021Z,25.23
2023-09-17T07:07:13.419Z,25.26
2023-09-17T07:08:14.818Z,25.25
2023-09-17T07:09:16.271Z,25.22
2023-09-17T07:10:17.664Z,25.16
2023-09-17T07:11:19.064Z,25.26
2023-09-17T07:12:20.458Z,25.23
2023-09-17T07:13:21.856Z,25.23
2023-09-17T07:14:23.342Z,25.29
2023-09-17T07:15:24.814Z,25.13
2023-09-17T07:16:26.357Z,25.22
2023-09-17T07:17:27.954Z,25.18
2023-09-17T07:18:29.409Z,25.13
2023-09-17T07:19:30.801Z,25.22
2023-09-17T07:20:32.220Z,25.21
2023-09-17T07:21:33.618Z,25.26
2023-09-17T07:22:35.060Z,25.25
2023-09-17T07:23:36.451Z,25.18
2023-09-17T07:24:37.907Z,25.26
2023-09-17T07:25:39.358Z,25.22
2023-09-17T07:26:40.770Z,25.21
2023-09-17T07:27:42.163Z,25.23
2023-09-17T07:28:43.640Z,25.22
2023-09-17T07:29:45.008Z,25.16
2023-09-17T07:30:46.440Z,25.23
2023-09-17T07:31:47.861Z,25.14
2023-09-17T07:32:49.291Z,25.23
2023-09-17T07:33:50.903Z,25.28
2023-09-17T07:34:52.543Z,25.23
2023-09-17T07:35:54.204Z,25.17
2023-09-17T07:36:55.752Z,25.25
2023-09-17T07:37:57.186Z,25.11
2023-09-17T07:38:58.700Z,25.17
2023-09-17T07:40:00.268Z,25.17
2023-09-17T07:41:01.730Z,25.14
2023-09-17T07:42:03.197Z,25.14
2023-09-17T07:43:04.603Z,25.21
2023-09-17T07:44:06.075Z,25.17
2023-09-17T07:45:07.578Z,25.25
2023-09-17T07:46:08.992Z,25.18
2023-09-17T07:47:10.421Z,25.13
2023-09-17T07:48:11.811Z,25.17
2023-09-17T07:49:13.211Z,25.17
2023-09-17T07:50:14.613Z,25.14
2023-09-17T07:51:16.007Z,25.21
2023-09-17T07:52:17.395Z,25.25
2023-09-17T07:53:18.790Z,25.14
2023-09-17T07:54:20.202Z,25.21
2023-09-17T07:55:21.645Z,25.16
2023-09-17T07:56:25.291Z,25.17
2023-09-17T07:57:25.628Z,25.17
2023-09-17T07:58:27.070Z,25.11
2023-09-17T07:59:28.515Z,25.11
2023-09-17T08:00:29.927Z,25.11
2023-09-17T08:01:31.388Z,25.16
2023-09-17T08:02:32.994Z,25.13
2023-09-17T08:03:34.504Z,25.13
2023-09-17T08:04:36.110Z,25.07
2023-09-17T08:05:37.750Z,25.08
2023-09-17T08:06:39.143Z,25.03
2023-09-17T08:07:40.590Z,25.01
2023-09-17T08:08:41.965Z,25.08
2023-09-17T08:09:43.363Z,25.04
2023-09-17T08:10:44.858Z,25.06
2023-09-17T08:11:46.240Z,24.99
2023-09-17T08:12:47.695Z,25.03
2023-09-17T08:13:49.325Z,25.04
2023-09-17T08:14:50.892Z,25.03
2023-09-17T08:15:52.287Z,24.98
2023-09-17T08:16:53.802Z,24.98
2023-09-17T08:17:55.294Z,24.96
2023-09-17T08:18:56.797Z,24.93
2023-09-17T08:19:58.374Z,25.01
2023-09-17T08:20:59.824Z,24.95
2023-09-17T08:22:01.215Z,25.03
2023-09-17T08:23:02.793Z,25.01
2023-09-17T08:24:04.207Z,24.96
2023-09-17T08:25:05.598Z,25.01
2023-09-17T08:26:07.133Z,24.98
2023-09-17T08:27:08.582Z,25.03
2023-09-17T08:28:12.379Z,24.99
2023-09-17T08:29:12.361Z,24.92
2023-09-17T08:30:13.793Z,25.03
2023-09-17T08:31:15.255Z,25.04
2023-09-17T08:32:16.648Z,25.03
2023-09-17T08:33:18.044Z,24.98
2023-09-17T08:34:22.199Z,24.95
2023-09-17T08:35:20.974Z,24.93
2023-09-17T08:36:22.370Z,24.93
2023-09-17T08:37:23.764Z,24.91
2023-09-17T08:38:25.162Z,24.93
2023-09-17T08:39:26.557Z,24.99
2023-09-17T08:40:29.830Z,25.01
2023-09-17T08:41:29.520Z,24.96
2023-09-17T08:42:30.903Z,24.98
2023-09-17T08:43:32.347Z,24.96
2023-09-17T08:44:33.755Z,24.99
2023-09-17T08:45:35.306Z,25.01
2023-09-17T08:46:36.896Z,24.93
2023-09-17T08:47:38.355Z,24.99
2023-09-17T08:48:39.758Z,24.99
2023-09-17T08:49:41.228Z,24.93
2023-09-17T08:50:42.637Z,25.06
2023-09-17T08:51:44.082Z,25.04
2023-09-17T08:52:45.501Z,25.01
2023-09-17T08:53:46.913Z,25.04
2023-09-17T08:54:48.315Z,24.96
2023-09-17T08:55:49.755Z,25.01
2023-09-17T08:56:51.159Z,24.98
2023-09-17T08:57:52.557Z,25.04
2023-09-17T08:58:54.021Z,25.06
2023-09-17T08:59:55.456Z,25.04
2023-09-17T09:00:56.853Z,25.07
2023-09-17T09:01:58.398Z,24.96
2023-09-17T09:02:59.983Z,25.01
2023-09-17T09:04:01.443Z,25.03
2023-09-17T09:05:02.884Z,24.98
2023-09-17T09:06:04.322Z,25.03
2023-09-17T09:07:05.704Z,25.01
2023-09-17T09:08:07.121Z,25.10
2023-09-17T09:09:08.528Z,25.04
2023-09-17T09:10:09.929Z,25.04
2023-09-17T09:11:11.408Z,25.04
2023-09-17T09:12:12.777Z,25.13
2023-09-17T09:13:14.177Z,25.06
2023-09-17T09:14:15.645Z,25.06
2023-09-17T09:15:17.039Z,25.06
2023-09-17T09:16:18.589Z,25.04
2023-09-17T09:17:19.971Z,25.04
2023-09-17T09:18:21.370Z,25.06
2023-09-17T09:19:22.766Z,25.06
2023-09-17T09:20:24.178Z,25.03
2023-09-17T09:21:25.613Z,25.06
2023-09-17T09:22:27.048Z,25.07
2023-09-17T09:23:28.482Z,25.08
2023-09-17T09:24:29.922Z,24.99
2023-09-17T09:25:31.339Z,25.03
2023-09-17T09:26:32.738Z,25.06
2023-09-17T09:27:34.189Z,25.17
2023-09-17T09:28:35.617Z,25.07
2023-09-17T09:29:37.043Z,25.14
2023-09-17T09:30:38.501Z,25.04
2023-09-17T09:31:39.938Z,25.06
2023-09-17T09:32:41.418Z,25.10
2023-09-17T09:33:42.886Z,25.06
2023-09-17T09:34:44.318Z,25.08
2023-09-17T09:35:45.695Z,25.08
2023-09-17T09:36:47.104Z,25.10
2023-09-17T09:37:48.626Z,25.07
2023-09-17T09:38:50.026Z,25.08
2023-09-17T09:39:51.422Z,25.06
2023-09-17T09:40:52.875Z,25.07
2023-09-17T09:41:54.374Z,25.08
2023-09-17T09:42:55.834Z,25.14
2023-09-17T09:43:57.280Z,25.14
2023-09-17T09:44:58.672Z,25.07
2023-09-17T09:46:00.157Z,25.07
2023-09-17T09:47:01.777Z,25.07
2023-09-17T09:48:03.313Z,25.08
2023-09-17T09:49:04.692Z,25.10
2023-09-17T09:50:06.111Z,25.10
2023-09-17T09:51:07.618Z,25.07
2023-09-17T09:52:09.016Z,25.10
2023-09-17T09:53:10.494Z,25.10
2023-09-17T09:54:11.917Z,25.13
2023-09-17T09:55:13.311Z,25.08
2023-09-17T09:56:14.712Z,25.10
2023-09-17T09:57:16.166Z,25.11
2023-09-17T09:58:17.618Z,25.11
2023-09-17T09:59:19.021Z,25.13
2023-09-17T10:00:20.412Z,25.11
2023-09-17T10:01:21.843Z,25.11
2023-09-17T10:02:23.375Z,25.14
2023-09-17T10:03:24.751Z,25.10
2023-09-17T10:04:26.252Z,25.10
2023-09-17T10:05:27.771Z,25.14
2023-09-17T10:06:29.155Z,25.10
2023-09-17T10:07:30.825Z,25.10
2023-09-17T10:08:32.271Z,25.08
2023-09-17T10:09:33.666Z,25.14
2023-09-17T10:10:35.124Z,25.13
2023-09-17T10:11:36.522Z,25.14
2023-09-17T10:12:37.923Z,25.13
2023-09-17T10:13:39.393Z,25.11
2023-09-17T10:14:40.783Z,25.14
2023-09-17T10:15:42.274Z,25.16
2023-09-17T10:16:43.727Z,25.07
2023-09-17T10:17:45.147Z,25.13
2023-09-17T10:18:46.564Z,25.14
2023-09-17T10:19:48.051Z,25.10
2023-09-17T10:20:49.450Z,25.16
2023-09-17T10:21:50.843Z,25.10
2023-09-17T10:22:52.253Z,25.13
2023-09-17T10:23:54.000Z,25.17
2023-09-17T10:24:55.618Z,25.14
2023-09-17T10:25:57.039Z,25.17
2023-09-17T10:26:58.453Z,25.13
2023-09-17T10:27:59.854Z,25.17
2023-09-17T10:29:01.344Z,25.14
2023-09-17T10:30:02.745Z,25.17
2023-09-17T10:31:04.233Z,25.18
2023-09-17T10:32:05.751Z,25.17
2023-09-17T10:33:07.285Z,25.21
2023-09-17T10:34:08.662Z,25.11
2023-09-17T10:35:10.123Z,25.23
2023-09-17T10:36:11.591Z,25.16
2023-09-17T10:37:12.984Z,25.13
2023-09-17T10:38:14.415Z,25.13
2023-09-17T10:39:15.835Z,25.17
2023-09-17T10:40:17.232Z,25.18
2023-09-17T10:41:18.629Z,25.17
2023-09-17T10:42:20.026Z,25.11
2023-09-17T10:43:21.428Z,25.18
2023-09-17T10:44:22.883Z,25.18
2023-09-17T10:45:24.279Z,25.21
2023-09-17T10:46:25.750Z,25.18
2023-09-17T10:47:27.196Z,25.14
2023-09-17T10:48:28.594Z,25.17
2023-09-17T10:49:30.050Z,25.13
2023-09-17T10:50:31.498Z,25.21
2023-09-17T10:51:32.892Z,25.14
2023-09-17T10:52:34.324Z,25.21
2023-09-17T10:53:35.758Z,25.16
2023-09-17T10:54:37.227Z,25.18
2023-09-17T10:55:38.691Z,25.22
2023-09-17T10:56:40.110Z,25.23
2023-09-17T10:57:41.518Z,25.22
2023-09-17T10:58:43.045Z,25.18
2023-09-17T10:59:44.375Z,25.23
2023-09-17T11:00:45.790Z,25.23
2023-09-17T11:01:47.255Z,25.22
2023-09-17T11:02:48.818Z,25.14
2023-09-17T11:03:50.583Z,25.18
2023-09-17T11:04:52.359Z,25.16
2023-09-17T11:05:53.776Z,25.11
2023-09-17T11:06:55.176Z,25.17
2023-09-17T11:07:56.628Z,25.10
2023-09-17T11:08:58.077Z,25.25
2023-09-17T11:09:59.469Z,25.22
2023-09-17T11:11:00.919Z,25.13
2023-09-17T11:12:02.321Z,25.14
2023-09-17T11:13:03.718Z,25.26
2023-09-17T11:14:05.151Z,25.21
2023-09-17T11:15:06.576Z,25.17
2023-09-17T11:16:08.031Z,25.22
2023-09-17T11:17:09.550Z,25.25
2023-09-17T11:18:11.011Z,25.26
2023-09-17T11:19:12.417Z,25.25
2023-09-17T11:20:13.924Z,25.16
2023-09-17T11:21:15.422Z,25.16
2023-09-17T11:22:16.822Z,25.17
2023-09-17T11:23:18.228Z,25.22
2023-09-17T11:24:19.637Z,25.21
2023-09-17T11:25:21.019Z,25.23
2023-09-17T11:26:22.419Z,25.25
2023-09-17T11:27:23.812Z,25.14
2023-09-17T11:28:25.210Z,25.11
2023-09-17T11:29:26.614Z,25.23
2023-09-17T11:30:28.169Z,25.23
2023-09-17T11:31:29.707Z,25.23
2023-09-17T11:32:31.286Z,25.22
2023-09-17T11:33:32.660Z,25.22
2023-09-17T11:34:34.073Z,25.25
2023-09-17T11:35:35.506Z,25.26
2023-09-17T11:36:37.008Z,25.22
2023-09-17T11:37:38.490Z,25.25
2023-09-17T11:38:39.977Z,25.17
2023-09-17T11:39:41.376Z,25.14
2023-09-17T11:40:42.853Z,25.25
2023-09-17T11:41:44.252Z,25.22
2023-09-17T11:42:45.645Z,25.25
2023-09-17T11:43:47.122Z,25.16
2023-09-17T11:44:48.543Z,25.21
2023-09-17T11:45:49.985Z,25.23
2023-09-17T11:46:51.508Z,25.23
2023-09-17T11:47:52.989Z,25.25
2023-09-17T11:48:54.379Z,25.17
2023-09-17T11:49:55.921Z,25.14
2023-09-17T11:50:57.317Z,25.23
2023-09-17T11:51:58.720Z,25.22
2023-09-17T11:53:00.170Z,25.21
2023-09-17T11:54:01.563Z,25.23
2023-09-17T11:55:02.963Z,25.22
2023-09-17T11:56:04.443Z,25.23
2023-09-17T11:57:05.834Z,25.26
2023-09-17T11:58:07.222Z,25.23
2023-09-17T11:59:08.653Z,25.25
2023-09-17T12:00:10.049Z,25.28
2023-09-17T12:01:11.531Z,25.25
2023-09-17T12:02:13.027Z,25.22
2023-09-17T12:03:14.524Z,25.16
2023-09-17T12:04:15.961Z,25.23
2023-09-17T12:05:17.406Z,25.22
2023-09-17T12:06:18.810Z,25.26
2023-09-17T12:07:20.198Z,25.22
2023-09-17T12:08:21.669Z,25.14
2023-09-17T12:09:23.148Z,25.22
2023-09-17T12:10:24.556Z,25.25
2023-09-17T12:11:25.987Z,25.25
2023-09-17T12:12:27.444Z,25.23
2023-09-17T12:13:28.855Z,25.22
2023-09-17T12:14:30.346Z,25.28
2023-09-17T12:15:31.735Z,25.10
2023-09-17T12:16:33.284Z,25.23
2023-09-17T12:17:41.842Z,25.18
2023-09-17T12:18:36.240Z,25.29
2023-09-17T12:19:37.747Z,25.26
2023-09-17T12:20:39.392Z,25.23
2023-09-17T12:21:40.803Z,25.23
2023-09-17T12:22:42.245Z,25.22
2023-09-17T12:23:43.623Z,25.23
2023-09-17T12:24:45.500Z,25.23
2023-09-17T12:25:47.415Z,25.18
2023-09-17T12:26:48.842Z,25.16
2023-09-17T12:27:50.240Z,25.18
2023-09-17T12:28:51.672Z,25.25
2023-09-17T12:29:53.059Z,25.16
2023-09-17T12:30:54.490Z,25.26
2023-09-17T12:31:56.054Z,25.21
2023-09-17T12:32:57.606Z,25.23
2023-09-17T12:33:59.083Z,25.25
2023-09-17T12:35:00.534Z,25.14
2023-09-17T12:36:01.935Z,25.23
2023-09-17T12:37:03.336Z,25.11
2023-09-17T12:38:04.844Z,25.23
2023-09-17T12:39:06.240Z,25.25
2023-09-17T12:40:07.635Z,25.26
2023-09-17T12:41:09.125Z,25.23
2023-09-17T12:42:10.604Z,25.25
2023-09-17T12:43:12.047Z,25.29
2023-09-17T12:44:13.562Z,25.21
2023-09-17T12:45:15.018Z,25.29
2023-09-17T12:46:16.510Z,25.22
2023-09-17T12:47:17.942Z,25.21
2023-09-17T12:48:19.379Z,25.25
2023-09-17T12:49:20.776Z,25.17
2023-09-17T12:50:22.171Z,25.26
2023-09-17T12:51:23.574Z,25.21
2023-09-17T12:52:24.965Z,25.28
2023-09-17T12:53:26.367Z,25.23
2023-09-17T12:54:27.796Z,25.26
2023-09-17T12:55:29.181Z,25.22
2023-09-17T12:56:30.564Z,25.23
2023-09-17T12:57:31.961Z,25.26
2023-09-17T12:58:33.427Z,25.25
2023-09-17T12:59:34.853Z,25.22
2023-09-17T13:00:36.274Z,25.35
2023-09-17T13:01:37.807Z,25.22
2023-09-17T13:02:39.297Z,25.22
2023-09-17T13:03:40.931Z,25.25
2023-09-17T13:04:42.530Z,25.18
2023-09-17T13:05:43.795Z,25.17
2023-09-17T13:06:45.203Z,25.33
2023-09-17T13:07:46.713Z,25.22
2023-09-17T13:08:48.096Z,25.17
2023-09-17T13:09:49.500Z,25.25
2023-09-17T13:10:50.921Z,25.21